Bookmark and Share
Track history (hours):
 

Maran Poseidon

Last reported at 2014-Apr-03 04:33 UTC. Time now 2014-Apr-16 22:24 UTC.
Position N 07°27' W 014°16'.
Warning: this ship's position is 13 days out of date.

Length 274 m; draft 9.6 m.

Type: Tanker. MMSI: 240959000.

NotesDate/timePositionNaut miles runAvg speedWind from/ knotsBaromVisibWave heightAir tempDewpointWater temp
2014-Apr-03 04:33N 07°27' W 014°16'2412.0
2014-Apr-03 02:33N 07°45' W 014°33'1212.0
2014-Apr-03 01:33N 07°54' W 014°40'1211.9
2014-Apr-03 00:33N 08°03' W 014°48'1311.8
2014-Apr-02 23:28N 08°13' W 014°56'1112.0
2014-Apr-02 22:33N 08°22' W 015°02'2711.9
2014-Apr-02 20:17N 08°40' W 015°23'912.0
2014-Apr-02 19:33N 08°46' W 015°30'2711.8
2014-Apr-02 17:17N 09°03' W 015°50'1412.2
2014-Apr-02 16:09N 09°13' W 015°60'712.1
2014-Apr-02 15:33N 09°18' W 016°05'2612.2
2014-Apr-02 13:28N 09°35' W 016°24'9912.5
2014-Apr-02 05:33N 10°50' W 017°29'2512.3
2014-Apr-02 03:32N 11°09' W 017°45'1111.6
2014-Apr-02 02:33N 11°20' W 017°50'1211.8
2014-Apr-02 01:33N 11°32' W 017°51'3911.8
2014-Apr-01 22:14N 12°11' W 017°51'3211.6
2014-Apr-01 19:27N 12°43' W 017°51'  
2014-Mar-27 15:29N 35°53' W 005°53'17 9.0
2014-Mar-27 13:34N 35°58' W 005°33'8 8.3
2014-Mar-27 12:34N 36°02' W 005°24'6 6.0
2014-Mar-27 11:31N 36°08' W 005°23'0 0.1
2014-Mar-27 10:31N 36°08' W 005°23'0 0.1
2014-Mar-27 09:31N 36°08' W 005°23'0 0.1
2014-Mar-27 08:31N 36°08' W 005°23'0 0.1
2014-Mar-27 07:28N 36°08' W 005°23'0 0.0
2014-Mar-27 06:19N 36°08' W 005°23'0 0.0
2014-Mar-27 05:10N 36°08' W 005°23'0 0.1
2014-Mar-27 04:31N 36°08' W 005°23'0 0.0
2014-Mar-27 03:28N 36°08' W 005°23'0 0.1
2014-Mar-27 02:28N 36°08' W 005°23'0 0.1
2014-Mar-27 01:31N 36°08' W 005°23'0 0.1
2014-Mar-27 00:31N 36°08' W 005°23'0 0.0
2014-Mar-26 23:31N 36°08' W 005°23'2 0.7
2014-Mar-26 20:33N 36°06' W 005°22'5 5.3
2014-Mar-26 19:33N 36°04' W 005°16'12 6.0
2014-Mar-26 17:33N 36°10' W 005°03'2 0.8
2014-Mar-26 15:32N 36°09' W 005°02'2 1.4
2014-Mar-26 14:28N 36°09' W 005°03'2 2.3
2014-Mar-26 13:24N 36°07' W 005°06'4 4.3
2014-Mar-26 12:33N 36°04' W 005°06'2 1.9
2014-Mar-26 11:33N 36°05' W 005°07'1 1.4
2014-Mar-26 10:33N 36°07' W 005°06'1 0.7
2014-Mar-26 08:31N 36°08' W 005°05'1 1.4
2014-Mar-26 07:33N 36°07' W 005°07'201 8.0
2014-Mar-25 06:19N 37°09' W 001°09'911.8
2014-Mar-25 05:33N 37°15' W 001°01'1212.2
2014-Mar-25 04:33N 37°23' W 000°49'1211.9
2014-Mar-25 03:33N 37°31' W 000°38'1211.9
2014-Mar-25 02:33N 37°40' W 000°28'1211.8
2014-Mar-25 01:33N 37°50' W 000°20'  

Dump ship's entire track history

sailing weather and tide predictions

Maran Poseidon — SVAV3 — position and weather